sensor_id;sensor_type;location;lat;lon;timestamp;P1;durP1;ratioP1;P2;durP2;ratioP2
6358;SDS011;3212;51.460;11.868;2023-07-31T00:00:51;4.37;;;2.07;;
6358;SDS011;3212;51.460;11.868;2023-07-31T00:04:14;3.03;;;1.87;;
6358;SDS011;3212;51.460;11.868;2023-07-31T00:07:36;4.67;;;1.77;;
6358;SDS011;3212;51.460;11.868;2023-07-31T00:10:59;2.67;;;2.03;;
6358;SDS011;3212;51.460;11.868;2023-07-31T00:14:22;2.70;;;1.70;;
6358;SDS011;3212;51.460;11.868;2023-07-31T00:17:44;3.70;;;1.90;;
6358;SDS011;3212;51.460;11.868;2023-07-31T00:21:07;2.63;;;1.87;;
6358;SDS011;3212;51.460;11.868;2023-07-31T00:24:30;3.20;;;1.70;;
6358;SDS011;3212;51.460;11.868;2023-07-31T00:27:53;2.50;;;1.87;;
6358;SDS011;3212;51.460;11.868;2023-07-31T00:31:16;5.53;;;2.00;;
6358;SDS011;3212;51.460;11.868;2023-07-31T00:34:38;3.10;;;1.67;;
6358;SDS011;3212;51.460;11.868;2023-07-31T00:38:00;3.93;;;1.60;;
6358;SDS011;3212;51.460;11.868;2023-07-31T00:41:23;6.80;;;2.00;;
6358;SDS011;3212;51.460;11.868;2023-07-31T00:44:45;3.03;;;1.70;;
6358;SDS011;3212;51.460;11.868;2023-07-31T00:48:08;5.13;;;2.13;;
6358;SDS011;3212;51.460;11.868;2023-07-31T00:51:30;2.87;;;1.80;;
6358;SDS011;3212;51.460;11.868;2023-07-31T00:54:53;1.90;;;1.57;;
6358;SDS011;3212;51.460;11.868;2023-07-31T00:58:15;4.60;;;2.00;;
6358;SDS011;3212;51.460;11.868;2023-07-31T01:01:38;4.70;;;1.70;;
6358;SDS011;3212;51.460;11.868;2023-07-31T01:05:02;4.63;;;1.70;;
6358;SDS011;3212;51.460;11.868;2023-07-31T01:08:32;3.20;;;1.50;;
6358;SDS011;3212;51.460;11.868;2023-07-31T01:11:56;5.10;;;1.83;;
6358;SDS011;3212;51.460;11.868;2023-07-31T01:15:18;4.77;;;1.70;;
6358;SDS011;3212;51.460;11.868;2023-07-31T01:18:42;2.17;;;1.60;;
6358;SDS011;3212;51.460;11.868;2023-07-31T01:22:16;4.13;;;1.77;;
6358;SDS011;3212;51.460;11.868;2023-07-31T01:25:59;2.63;;;1.70;;
6358;SDS011;3212;51.460;11.868;2023-07-31T01:29:28;4.37;;;1.93;;
6358;SDS011;3212;51.460;11.868;2023-07-31T01:32:54;2.60;;;2.00;;
6358;SDS011;3212;51.460;11.868;2023-07-31T01:36:17;9.00;;;2.60;;
6358;SDS011;3212;51.460;11.868;2023-07-31T01:39:39;5.43;;;2.23;;
6358;SDS011;3212;51.460;11.868;2023-07-31T01:43:01;6.07;;;1.93;;
6358;SDS011;3212;51.460;11.868;2023-07-31T01:46:24;3.00;;;1.83;;
6358;SDS011;3212;51.460;11.868;2023-07-31T01:49:46;2.90;;;1.77;;
6358;SDS011;3212;51.460;11.868;2023-07-31T01:53:09;2.70;;;1.50;;
6358;SDS011;3212;51.460;11.868;2023-07-31T01:56:31;3.97;;;1.90;;
6358;SDS011;3212;51.460;11.868;2023-07-31T01:59:54;6.30;;;2.27;;
6358;SDS011;3212;51.460;11.868;2023-07-31T02:03:16;2.73;;;1.60;;
6358;SDS011;3212;51.460;11.868;2023-07-31T02:06:39;4.17;;;2.00;;
6358;SDS011;3212;51.460;11.868;2023-07-31T02:10:04;3.40;;;1.63;;
6358;SDS011;3212;51.460;11.868;2023-07-31T02:13:27;2.53;;;1.70;;
6358;SDS011;3212;51.460;11.868;2023-07-31T02:16:49;2.53;;;2.00;;
6358;SDS011;3212;51.460;11.868;2023-07-31T02:20:12;2.90;;;2.10;;
6358;SDS011;3212;51.460;11.868;2023-07-31T02:23:34;4.60;;;2.03;;
6358;SDS011;3212;51.460;11.868;2023-07-31T02:26:57;4.97;;;2.33;;
6358;SDS011;3212;51.460;11.868;2023-07-31T02:30:19;2.73;;;2.00;;
6358;SDS011;3212;51.460;11.868;2023-07-31T02:33:42;3.33;;;2.07;;
6358;SDS011;3212;51.460;11.868;2023-07-31T02:37:04;2.20;;;1.60;;
6358;SDS011;3212;51.460;11.868;2023-07-31T02:40:27;4.50;;;1.77;;
6358;SDS011;3212;51.460;11.868;2023-07-31T02:43:50;6.40;;;1.70;;
6358;SDS011;3212;51.460;11.868;2023-07-31T02:47:12;3.00;;;1.60;;
6358;SDS011;3212;51.460;11.868;2023-07-31T02:50:34;3.10;;;1.83;;
6358;SDS011;3212;51.460;11.868;2023-07-31T02:53:57;4.43;;;2.00;;
6358;SDS011;3212;51.460;11.868;2023-07-31T02:57:20;2.47;;;1.70;;
6358;SDS011;3212;51.460;11.868;2023-07-31T03:00:43;2.30;;;1.90;;
6358;SDS011;3212;51.460;11.868;2023-07-31T03:04:05;2.60;;;1.70;;
6358;SDS011;3212;51.460;11.868;2023-07-31T03:07:28;2.57;;;1.87;;
6358;SDS011;3212;51.460;11.868;2023-07-31T03:10:50;4.83;;;1.87;;
6358;SDS011;3212;51.460;11.868;2023-07-31T03:14:13;4.20;;;1.77;;
6358;SDS011;3212;51.460;11.868;2023-07-31T03:17:35;4.07;;;2.30;;
6358;SDS011;3212;51.460;11.868;2023-07-31T03:20:58;1.93;;;1.40;;
6358;SDS011;3212;51.460;11.868;2023-07-31T03:24:20;4.10;;;1.60;;
6358;SDS011;3212;51.460;11.868;2023-07-31T03:27:43;2.70;;;1.97;;
6358;SDS011;3212;51.460;11.868;2023-07-31T03:31:06;4.40;;;1.80;;
6358;SDS011;3212;51.460;11.868;2023-07-31T03:34:28;3.67;;;1.93;;
6358;SDS011;3212;51.460;11.868;2023-07-31T03:37:51;4.73;;;2.17;;
6358;SDS011;3212;51.460;11.868;2023-07-31T03:41:13;3.70;;;2.10;;
6358;SDS011;3212;51.460;11.868;2023-07-31T03:44:35;5.00;;;1.90;;
6358;SDS011;3212;51.460;11.868;2023-07-31T03:47:57;3.20;;;1.80;;
6358;SDS011;3212;51.460;11.868;2023-07-31T03:51:19;4.03;;;2.17;;
6358;SDS011;3212;51.460;11.868;2023-07-31T03:54:41;3.43;;;2.03;;
6358;SDS011;3212;51.460;11.868;2023-07-31T03:58:05;2.87;;;2.20;;
6358;SDS011;3212;51.460;11.868;2023-07-31T04:01:27;3.73;;;2.20;;
6358;SDS011;3212;51.460;11.868;2023-07-31T04:04:50;5.13;;;2.00;;
6358;SDS011;3212;51.460;11.868;2023-07-31T04:08:12;2.80;;;2.07;;
6358;SDS011;3212;51.460;11.868;2023-07-31T04:11:35;3.57;;;2.00;;
6358;SDS011;3212;51.460;11.868;2023-07-31T04:14:58;2.70;;;1.83;;
6358;SDS011;3212;51.460;11.868;2023-07-31T04:18:21;5.50;;;2.00;;
6358;SDS011;3212;51.460;11.868;2023-07-31T04:21:44;7.17;;;2.50;;
6358;SDS011;3212;51.460;11.868;2023-07-31T04:25:07;5.50;;;2.27;;
6358;SDS011;3212;51.460;11.868;2023-07-31T04:28:29;2.93;;;2.13;;
6358;SDS011;3212;51.460;11.868;2023-07-31T04:31:53;6.27;;;2.50;;
6358;SDS011;3212;51.460;11.868;2023-07-31T04:35:16;2.73;;;2.00;;
6358;SDS011;3212;51.460;11.868;2023-07-31T04:38:39;9.07;;;2.43;;
6358;SDS011;3212;51.460;11.868;2023-07-31T04:42:02;3.23;;;2.30;;
6358;SDS011;3212;51.460;11.868;2023-07-31T04:45:25;3.90;;;1.90;;
6358;SDS011;3212;51.460;11.868;2023-07-31T04:48:47;6.70;;;2.20;;
6358;SDS011;3212;51.460;11.868;2023-07-31T04:52:10;4.00;;;2.37;;
6358;SDS011;3212;51.460;11.868;2023-07-31T04:55:33;4.00;;;2.60;;
6358;SDS011;3212;51.460;11.868;2023-07-31T04:58:55;3.40;;;2.47;;
6358;SDS011;3212;51.460;11.868;2023-07-31T05:02:18;4.17;;;2.40;;
6358;SDS011;3212;51.460;11.868;2023-07-31T05:05:41;4.23;;;2.50;;
6358;SDS011;3212;51.460;11.868;2023-07-31T05:09:04;3.57;;;2.50;;
6358;SDS011;3212;51.460;11.868;2023-07-31T05:12:27;5.57;;;2.63;;
6358;SDS011;3212;51.460;11.868;2023-07-31T05:15:51;4.05;;;2.15;;
6358;SDS011;3212;51.460;11.868;2023-07-31T05:19:13;5.37;;;2.60;;
6358;SDS011;3212;51.460;11.868;2023-07-31T05:22:36;2.97;;;2.50;;
6358;SDS011;3212;51.460;11.868;2023-07-31T05:26:03;4.20;;;2.70;;
6358;SDS011;3212;51.460;11.868;2023-07-31T05:29:24;7.77;;;3.00;;
6358;SDS011;3212;51.460;11.868;2023-07-31T05:32:47;5.33;;;2.33;;
6358;SDS011;3212;51.460;11.868;2023-07-31T05:36:09;2.97;;;2.40;;
6358;SDS011;3212;51.460;11.868;2023-07-31T05:39:32;6.80;;;2.60;;
6358;SDS011;3212;51.460;11.868;2023-07-31T05:42:54;3.80;;;2.50;;
6358;SDS011;3212;51.460;11.868;2023-07-31T05:46:17;2.73;;;2.37;;
6358;SDS011;3212;51.460;11.868;2023-07-31T05:49:40;3.33;;;2.40;;
6358;SDS011;3212;51.460;11.868;2023-07-31T05:53:02;7.20;;;2.60;;
6358;SDS011;3212;51.460;11.868;2023-07-31T05:56:26;5.80;;;2.40;;
6358;SDS011;3212;51.460;11.868;2023-07-31T05:59:48;2.57;;;2.00;;
6358;SDS011;3212;51.460;11.868;2023-07-31T06:03:11;3.00;;;2.40;;
6358;SDS011;3212;51.460;11.868;2023-07-31T06:06:33;2.63;;;2.13;;
6358;SDS011;3212;51.460;11.868;2023-07-31T06:09:56;4.37;;;2.40;;
6358;SDS011;3212;51.460;11.868;2023-07-31T06:13:18;3.77;;;2.43;;
6358;SDS011;3212;51.460;11.868;2023-07-31T06:16:41;3.10;;;2.27;;
6358;SDS011;3212;51.460;11.868;2023-07-31T06:20:05;6.93;;;2.60;;
6358;SDS011;3212;51.460;11.868;2023-07-31T06:23:28;3.90;;;2.20;;
6358;SDS011;3212;51.460;11.868;2023-07-31T06:26:50;3.30;;;2.33;;
6358;SDS011;3212;51.460;11.868;2023-07-31T06:30:13;3.00;;;2.07;;
6358;SDS011;3212;51.460;11.868;2023-07-31T06:33:37;5.10;;;2.20;;
6358;SDS011;3212;51.460;11.868;2023-07-31T06:37:00;4.73;;;2.03;;
6358;SDS011;3212;51.460;11.868;2023-07-31T06:40:22;4.13;;;2.27;;
6358;SDS011;3212;51.460;11.868;2023-07-31T06:43:45;7.87;;;2.70;;
6358;SDS011;3212;51.460;11.868;2023-07-31T06:47:08;4.10;;;2.50;;
6358;SDS011;3212;51.460;11.868;2023-07-31T06:50:31;6.40;;;2.20;;
6358;SDS011;3212;51.460;11.868;2023-07-31T06:53:53;3.60;;;2.10;;
6358;SDS011;3212;51.460;11.868;2023-07-31T06:57:15;4.90;;;2.67;;
6358;SDS011;3212;51.460;11.868;2023-07-31T07:00:39;3.37;;;2.40;;
6358;SDS011;3212;51.460;11.868;2023-07-31T07:04:02;2.83;;;2.17;;
6358;SDS011;3212;51.460;11.868;2023-07-31T07:07:24;4.23;;;2.57;;
6358;SDS011;3212;51.460;11.868;2023-07-31T07:10:47;4.20;;;2.40;;
6358;SDS011;3212;51.460;11.868;2023-07-31T07:14:10;4.13;;;2.47;;
6358;SDS011;3212;51.460;11.868;2023-07-31T07:17:33;3.40;;;2.20;;
6358;SDS011;3212;51.460;11.868;2023-07-31T07:20:56;4.90;;;2.10;;
6358;SDS011;3212;51.460;11.868;2023-07-31T07:24:18;4.80;;;2.30;;
6358;SDS011;3212;51.460;11.868;2023-07-31T07:27:41;2.60;;;2.20;;
6358;SDS011;3212;51.460;11.868;2023-07-31T07:31:04;2.83;;;2.00;;
6358;SDS011;3212;51.460;11.868;2023-07-31T07:34:27;1.87;;;1.77;;
6358;SDS011;3212;51.460;11.868;2023-07-31T07:37:49;3.20;;;1.90;;
6358;SDS011;3212;51.460;11.868;2023-07-31T07:41:12;3.87;;;2.13;;
6358;SDS011;3212;51.460;11.868;2023-07-31T07:44:34;3.10;;;2.00;;
6358;SDS011;3212;51.460;11.868;2023-07-31T07:47:57;4.50;;;2.20;;
6358;SDS011;3212;51.460;11.868;2023-07-31T07:51:19;3.27;;;2.00;;
6358;SDS011;3212;51.460;11.868;2023-07-31T07:54:42;3.73;;;2.40;;
6358;SDS011;3212;51.460;11.868;2023-07-31T07:58:04;4.27;;;2.43;;
6358;SDS011;3212;51.460;11.868;2023-07-31T08:01:26;3.50;;;2.20;;
6358;SDS011;3212;51.460;11.868;2023-07-31T08:04:49;2.90;;;2.00;;
6358;SDS011;3212;51.460;11.868;2023-07-31T08:08:14;3.97;;;2.30;;
6358;SDS011;3212;51.460;11.868;2023-07-31T08:11:36;4.43;;;2.40;;
6358;SDS011;3212;51.460;11.868;2023-07-31T08:15:00;8.30;;;2.87;;
6358;SDS011;3212;51.460;11.868;2023-07-31T08:18:22;7.00;;;2.60;;
6358;SDS011;3212;51.460;11.868;2023-07-31T08:21:45;4.07;;;2.27;;
6358;SDS011;3212;51.460;11.868;2023-07-31T08:25:08;3.90;;;2.23;;
6358;SDS011;3212;51.460;11.868;2023-07-31T08:28:31;2.80;;;2.10;;
6358;SDS011;3212;51.460;11.868;2023-07-31T08:31:53;4.13;;;2.10;;
6358;SDS011;3212;51.460;11.868;2023-07-31T08:35:17;2.90;;;1.90;;
6358;SDS011;3212;51.460;11.868;2023-07-31T08:38:39;4.20;;;2.10;;
6358;SDS011;3212;51.460;11.868;2023-07-31T08:42:02;6.90;;;2.20;;
6358;SDS011;3212;51.460;11.868;2023-07-31T08:45:25;3.47;;;2.37;;
6358;SDS011;3212;51.460;11.868;2023-07-31T08:48:47;3.13;;;2.20;;
6358;SDS011;3212;51.460;11.868;2023-07-31T08:52:10;5.30;;;2.40;;
6358;SDS011;3212;51.460;11.868;2023-07-31T08:55:33;4.23;;;2.57;;
6358;SDS011;3212;51.460;11.868;2023-07-31T08:58:55;4.23;;;2.20;;
6358;SDS011;3212;51.460;11.868;2023-07-31T09:02:18;2.37;;;1.90;;
6358;SDS011;3212;51.460;11.868;2023-07-31T09:05:42;4.97;;;2.40;;
6358;SDS011;3212;51.460;11.868;2023-07-31T09:09:05;5.47;;;2.33;;
6358;SDS011;3212;51.460;11.868;2023-07-31T09:12:27;3.27;;;2.43;;
6358;SDS011;3212;51.460;11.868;2023-07-31T09:15:50;3.33;;;2.30;;
6358;SDS011;3212;51.460;11.868;2023-07-31T09:19:12;3.23;;;2.20;;
6358;SDS011;3212;51.460;11.868;2023-07-31T09:22:35;5.33;;;2.40;;
6358;SDS011;3212;51.460;11.868;2023-07-31T09:25:58;3.17;;;2.27;;
6358;SDS011;3212;51.460;11.868;2023-07-31T09:29:20;6.50;;;2.60;;
6358;SDS011;3212;51.460;11.868;2023-07-31T09:32:43;4.80;;;2.47;;
6358;SDS011;3212;51.460;11.868;2023-07-31T09:36:06;2.60;;;2.23;;
6358;SDS011;3212;51.460;11.868;2023-07-31T09:39:29;3.67;;;2.53;;
6358;SDS011;3212;51.460;11.868;2023-07-31T09:42:50;3.40;;;2.50;;
6358;SDS011;3212;51.460;11.868;2023-07-31T09:46:14;4.27;;;2.27;;
6358;SDS011;3212;51.460;11.868;2023-07-31T09:49:37;5.73;;;2.50;;
6358;SDS011;3212;51.460;11.868;2023-07-31T09:52:59;3.50;;;2.73;;
6358;SDS011;3212;51.460;11.868;2023-07-31T09:56:23;4.70;;;2.40;;
6358;SDS011;3212;51.460;11.868;2023-07-31T09:59:46;5.30;;;2.40;;
6358;SDS011;3212;51.460;11.868;2023-07-31T10:03:08;4.50;;;2.70;;
6358;SDS011;3212;51.460;11.868;2023-07-31T10:06:30;2.87;;;2.10;;
6358;SDS011;3212;51.460;11.868;2023-07-31T10:09:53;4.43;;;2.40;;
6358;SDS011;3212;51.460;11.868;2023-07-31T10:13:15;4.07;;;2.70;;
6358;SDS011;3212;51.460;11.868;2023-07-31T10:16:38;4.07;;;2.47;;
6358;SDS011;3212;51.460;11.868;2023-07-31T10:20:01;4.53;;;2.80;;
6358;SDS011;3212;51.460;11.868;2023-07-31T10:23:24;5.73;;;2.40;;
6358;SDS011;3212;51.460;11.868;2023-07-31T10:26:47;2.70;;;2.43;;
6358;SDS011;3212;51.460;11.868;2023-07-31T10:30:12;3.67;;;2.57;;
6358;SDS011;3212;51.460;11.868;2023-07-31T10:33:33;3.30;;;2.20;;
6358;SDS011;3212;51.460;11.868;2023-07-31T10:40:40;6.37;;;2.30;;
6358;SDS011;3212;51.460;11.868;2023-07-31T10:44:03;3.40;;;2.80;;
6358;SDS011;3212;51.460;11.868;2023-07-31T10:47:25;6.13;;;2.50;;
6358;SDS011;3212;51.460;11.868;2023-07-31T10:50:49;5.67;;;2.80;;
6358;SDS011;3212;51.460;11.868;2023-07-31T10:54:12;4.50;;;2.47;;
6358;SDS011;3212;51.460;11.868;2023-07-31T10:57:34;5.00;;;2.70;;
6358;SDS011;3212;51.460;11.868;2023-07-31T11:00:57;4.10;;;2.50;;
6358;SDS011;3212;51.460;11.868;2023-07-31T11:04:22;4.50;;;2.70;;
6358;SDS011;3212;51.460;11.868;2023-07-31T11:07:46;3.57;;;2.53;;
6358;SDS011;3212;51.460;11.868;2023-07-31T11:11:10;5.47;;;2.60;;
6358;SDS011;3212;51.460;11.868;2023-07-31T11:14:31;3.33;;;2.33;;
6358;SDS011;3212;51.460;11.868;2023-07-31T11:17:54;4.50;;;2.80;;
6358;SDS011;3212;51.460;11.868;2023-07-31T11:21:18;3.70;;;2.43;;
6358;SDS011;3212;51.460;11.868;2023-07-31T11:24:40;4.37;;;2.47;;
6358;SDS011;3212;51.460;11.868;2023-07-31T11:28:03;4.80;;;2.73;;
6358;SDS011;3212;51.460;11.868;2023-07-31T11:31:25;3.80;;;2.53;;
6358;SDS011;3212;51.460;11.868;2023-07-31T11:34:51;3.60;;;2.43;;
6358;SDS011;3212;51.460;11.868;2023-07-31T11:38:21;4.10;;;2.40;;
6358;SDS011;3212;51.460;11.868;2023-07-31T11:41:44;3.90;;;2.40;;
6358;SDS011;3212;51.460;11.868;2023-07-31T11:45:08;7.33;;;2.37;;
6358;SDS011;3212;51.460;11.868;2023-07-31T11:48:32;7.33;;;3.00;;
6358;SDS011;3212;51.460;11.868;2023-07-31T11:51:55;5.20;;;2.93;;
6358;SDS011;3212;51.460;11.868;2023-07-31T11:55:18;5.97;;;2.67;;
6358;SDS011;3212;51.460;11.868;2023-07-31T11:58:41;4.03;;;2.53;;
6358;SDS011;3212;51.460;11.868;2023-07-31T12:02:04;3.93;;;2.77;;
6358;SDS011;3212;51.460;11.868;2023-07-31T12:05:26;4.20;;;2.93;;
6358;SDS011;3212;51.460;11.868;2023-07-31T12:08:49;7.83;;;3.17;;
6358;SDS011;3212;51.460;11.868;2023-07-31T12:12:11;6.53;;;3.07;;
6358;SDS011;3212;51.460;11.868;2023-07-31T12:15:37;5.77;;;2.97;;
6358;SDS011;3212;51.460;11.868;2023-07-31T12:18:58;12.80;;;3.70;;
6358;SDS011;3212;51.460;11.868;2023-07-31T12:22:21;4.70;;;2.67;;
6358;SDS011;3212;51.460;11.868;2023-07-31T12:25:44;5.60;;;2.83;;
6358;SDS011;3212;51.460;11.868;2023-07-31T12:29:07;2.57;;;2.33;;
6358;SDS011;3212;51.460;11.868;2023-07-31T12:32:29;4.10;;;3.10;;
6358;SDS011;3212;51.460;11.868;2023-07-31T12:35:52;4.05;;;2.53;;
6358;SDS011;3212;51.460;11.868;2023-07-31T12:39:15;3.73;;;2.70;;
6358;SDS011;3212;51.460;11.868;2023-07-31T12:42:38;3.43;;;2.40;;
6358;SDS011;3212;51.460;11.868;2023-07-31T12:46:00;2.93;;;2.60;;
6358;SDS011;3212;51.460;11.868;2023-07-31T12:49:23;9.07;;;3.20;;
6358;SDS011;3212;51.460;11.868;2023-07-31T12:52:45;3.77;;;2.33;;
6358;SDS011;3212;51.460;11.868;2023-07-31T12:56:09;5.30;;;2.87;;
6358;SDS011;3212;51.460;11.868;2023-07-31T12:59:31;4.70;;;2.63;;
6358;SDS011;3212;51.460;11.868;2023-07-31T13:02:54;2.87;;;2.27;;
6358;SDS011;3212;51.460;11.868;2023-07-31T13:06:16;4.57;;;2.63;;
6358;SDS011;3212;51.460;11.868;2023-07-31T13:09:39;4.80;;;2.27;;
6358;SDS011;3212;51.460;11.868;2023-07-31T13:13:01;3.87;;;2.50;;
6358;SDS011;3212;51.460;11.868;2023-07-31T13:16:24;4.83;;;2.80;;
6358;SDS011;3212;51.460;11.868;2023-07-31T13:19:47;3.73;;;2.60;;
6358;SDS011;3212;51.460;11.868;2023-07-31T13:23:09;2.87;;;2.57;;
6358;SDS011;3212;51.460;11.868;2023-07-31T13:26:32;3.50;;;2.20;;
6358;SDS011;3212;51.460;11.868;2023-07-31T13:29:54;6.03;;;2.83;;
6358;SDS011;3212;51.460;11.868;2023-07-31T13:33:17;3.00;;;2.13;;
6358;SDS011;3212;51.460;11.868;2023-07-31T13:36:40;3.10;;;2.30;;
6358;SDS011;3212;51.460;11.868;2023-07-31T13:40:03;2.47;;;2.17;;
6358;SDS011;3212;51.460;11.868;2023-07-31T13:43:26;8.30;;;1.97;;
6358;SDS011;3212;51.460;11.868;2023-07-31T13:46:48;6.17;;;2.50;;
6358;SDS011;3212;51.460;11.868;2023-07-31T13:50:11;5.20;;;2.33;;
6358;SDS011;3212;51.460;11.868;2023-07-31T13:53:34;2.43;;;2.03;;
6358;SDS011;3212;51.460;11.868;2023-07-31T13:56:56;5.40;;;2.13;;
6358;SDS011;3212;51.460;11.868;2023-07-31T14:00:20;4.13;;;2.10;;
6358;SDS011;3212;51.460;11.868;2023-07-31T14:03:42;6.07;;;1.90;;
6358;SDS011;3212;51.460;11.868;2023-07-31T14:07:04;5.57;;;2.10;;
6358;SDS011;3212;51.460;11.868;2023-07-31T14:10:27;3.63;;;2.33;;
6358;SDS011;3212;51.460;11.868;2023-07-31T14:13:50;2.33;;;2.03;;
6358;SDS011;3212;51.460;11.868;2023-07-31T14:17:13;1.83;;;1.57;;
6358;SDS011;3212;51.460;11.868;2023-07-31T14:20:35;2.30;;;1.63;;
6358;SDS011;3212;51.460;11.868;2023-07-31T14:23:58;3.67;;;2.10;;
6358;SDS011;3212;51.460;11.868;2023-07-31T14:27:21;2.60;;;2.13;;
6358;SDS011;3212;51.460;11.868;2023-07-31T14:30:44;2.80;;;2.20;;
6358;SDS011;3212;51.460;11.868;2023-07-31T14:34:07;4.77;;;1.90;;
6358;SDS011;3212;51.460;11.868;2023-07-31T14:37:37;2.57;;;1.80;;
6358;SDS011;3212;51.460;11.868;2023-07-31T14:40:59;5.32;;;2.65;;
6358;SDS011;3212;51.460;11.868;2023-07-31T14:44:22;5.10;;;2.43;;
6358;SDS011;3212;51.460;11.868;2023-07-31T14:47:44;4.03;;;2.60;;
6358;SDS011;3212;51.460;11.868;2023-07-31T14:51:07;3.50;;;2.47;;
6358;SDS011;3212;51.460;11.868;2023-07-31T14:54:29;3.00;;;2.20;;
6358;SDS011;3212;51.460;11.868;2023-07-31T14:57:52;4.30;;;2.80;;
6358;SDS011;3212;51.460;11.868;2023-07-31T15:01:15;4.20;;;2.50;;
6358;SDS011;3212;51.460;11.868;2023-07-31T15:04:37;4.63;;;2.50;;
6358;SDS011;3212;51.460;11.868;2023-07-31T15:07:59;2.60;;;2.27;;
6358;SDS011;3212;51.460;11.868;2023-07-31T15:11:22;4.63;;;2.40;;
6358;SDS011;3212;51.460;11.868;2023-07-31T15:14:45;3.93;;;2.20;;
6358;SDS011;3212;51.460;11.868;2023-07-31T15:18:07;8.90;;;2.80;;
6358;SDS011;3212;51.460;11.868;2023-07-31T15:21:30;5.27;;;2.47;;
6358;SDS011;3212;51.460;11.868;2023-07-31T15:24:54;6.00;;;2.57;;
6358;SDS011;3212;51.460;11.868;2023-07-31T15:28:16;4.63;;;2.47;;
6358;SDS011;3212;51.460;11.868;2023-07-31T15:31:40;8.10;;;2.70;;
6358;SDS011;3212;51.460;11.868;2023-07-31T15:35:03;8.37;;;2.60;;
6358;SDS011;3212;51.460;11.868;2023-07-31T15:38:25;3.63;;;2.60;;
6358;SDS011;3212;51.460;11.868;2023-07-31T15:41:48;3.40;;;2.30;;
6358;SDS011;3212;51.460;11.868;2023-07-31T15:45:10;4.40;;;2.43;;
6358;SDS011;3212;51.460;11.868;2023-07-31T15:48:33;4.53;;;2.40;;
6358;SDS011;3212;51.460;11.868;2023-07-31T15:51:55;4.20;;;2.83;;
6358;SDS011;3212;51.460;11.868;2023-07-31T15:55:18;3.03;;;2.50;;
6358;SDS011;3212;51.460;11.868;2023-07-31T15:58:41;4.40;;;2.70;;
6358;SDS011;3212;51.460;11.868;2023-07-31T16:02:04;2.93;;;2.40;;
6358;SDS011;3212;51.460;11.868;2023-07-31T16:05:27;5.45;;;2.72;;
6358;SDS011;3212;51.460;11.868;2023-07-31T16:08:49;4.57;;;2.83;;
6358;SDS011;3212;51.460;11.868;2023-07-31T16:12:12;5.07;;;2.80;;
6358;SDS011;3212;51.460;11.868;2023-07-31T16:15:34;6.33;;;2.50;;
6358;SDS011;3212;51.460;11.868;2023-07-31T16:18:57;6.83;;;2.87;;
6358;SDS011;3212;51.460;11.868;2023-07-31T16:22:19;2.50;;;2.10;;
6358;SDS011;3212;51.460;11.868;2023-07-31T16:25:41;5.33;;;3.23;;
6358;SDS011;3212;51.460;11.868;2023-07-31T16:29:05;4.57;;;2.90;;
6358;SDS011;3212;51.460;11.868;2023-07-31T16:32:27;3.50;;;2.53;;
6358;SDS011;3212;51.460;11.868;2023-07-31T16:35:50;6.63;;;3.30;;
6358;SDS011;3212;51.460;11.868;2023-07-31T16:39:14;4.50;;;2.80;;
6358;SDS011;3212;51.460;11.868;2023-07-31T16:42:36;4.40;;;2.67;;
6358;SDS011;3212;51.460;11.868;2023-07-31T16:45:59;4.90;;;3.10;;
6358;SDS011;3212;51.460;11.868;2023-07-31T16:49:22;3.60;;;2.50;;
6358;SDS011;3212;51.460;11.868;2023-07-31T16:52:45;7.20;;;3.20;;
6358;SDS011;3212;51.460;11.868;2023-07-31T16:56:08;4.73;;;3.00;;
6358;SDS011;3212;51.460;11.868;2023-07-31T16:59:31;6.30;;;3.10;;
6358;SDS011;3212;51.460;11.868;2023-07-31T17:02:53;4.60;;;2.90;;
6358;SDS011;3212;51.460;11.868;2023-07-31T17:06:17;6.10;;;3.10;;
6358;SDS011;3212;51.460;11.868;2023-07-31T17:09:39;8.73;;;2.77;;
6358;SDS011;3212;51.460;11.868;2023-07-31T17:13:01;4.47;;;3.10;;
6358;SDS011;3212;51.460;11.868;2023-07-31T17:16:24;5.87;;;3.03;;
6358;SDS011;3212;51.460;11.868;2023-07-31T17:19:47;4.53;;;2.43;;
6358;SDS011;3212;51.460;11.868;2023-07-31T17:23:10;4.77;;;3.00;;
6358;SDS011;3212;51.460;11.868;2023-07-31T17:26:33;6.00;;;2.87;;
6358;SDS011;3212;51.460;11.868;2023-07-31T17:29:56;6.10;;;3.40;;
6358;SDS011;3212;51.460;11.868;2023-07-31T17:33:19;3.30;;;2.67;;
6358;SDS011;3212;51.460;11.868;2023-07-31T17:36:41;7.33;;;2.80;;
6358;SDS011;3212;51.460;11.868;2023-07-31T17:40:04;7.10;;;3.17;;
6358;SDS011;3212;51.460;11.868;2023-07-31T17:43:27;4.53;;;2.70;;
6358;SDS011;3212;51.460;11.868;2023-07-31T17:46:49;5.37;;;2.83;;
6358;SDS011;3212;51.460;11.868;2023-07-31T17:50:12;3.73;;;2.70;;
6358;SDS011;3212;51.460;11.868;2023-07-31T17:53:34;5.30;;;3.13;;
6358;SDS011;3212;51.460;11.868;2023-07-31T17:56:57;6.17;;;2.90;;
6358;SDS011;3212;51.460;11.868;2023-07-31T18:00:21;2.90;;;2.60;;
6358;SDS011;3212;51.460;11.868;2023-07-31T18:03:43;3.90;;;2.70;;
6358;SDS011;3212;51.460;11.868;2023-07-31T18:07:06;4.03;;;2.73;;
6358;SDS011;3212;51.460;11.868;2023-07-31T18:10:29;5.33;;;3.17;;
6358;SDS011;3212;51.460;11.868;2023-07-31T18:13:52;4.07;;;3.00;;
6358;SDS011;3212;51.460;11.868;2023-07-31T18:17:14;5.10;;;2.87;;
6358;SDS011;3212;51.460;11.868;2023-07-31T18:20:37;6.90;;;3.37;;
6358;SDS011;3212;51.460;11.868;2023-07-31T18:24:00;5.00;;;3.10;;
6358;SDS011;3212;51.460;11.868;2023-07-31T18:27:22;3.37;;;2.73;;
6358;SDS011;3212;51.460;11.868;2023-07-31T18:30:45;4.20;;;2.83;;
6358;SDS011;3212;51.460;11.868;2023-07-31T18:34:08;5.17;;;3.37;;
6358;SDS011;3212;51.460;11.868;2023-07-31T18:37:30;8.17;;;3.10;;
6358;SDS011;3212;51.460;11.868;2023-07-31T18:40:53;4.10;;;3.17;;
6358;SDS011;3212;51.460;11.868;2023-07-31T18:44:16;6.80;;;3.33;;
6358;SDS011;3212;51.460;11.868;2023-07-31T18:47:38;7.10;;;3.57;;
6358;SDS011;3212;51.460;11.868;2023-07-31T18:51:01;5.03;;;2.90;;
6358;SDS011;3212;51.460;11.868;2023-07-31T18:54:24;6.70;;;2.80;;
6358;SDS011;3212;51.460;11.868;2023-07-31T18:57:49;4.40;;;2.63;;
6358;SDS011;3212;51.460;11.868;2023-07-31T19:01:12;4.17;;;2.93;;
6358;SDS011;3212;51.460;11.868;2023-07-31T19:04:35;5.00;;;2.80;;
6358;SDS011;3212;51.460;11.868;2023-07-31T19:07:57;7.37;;;3.13;;
6358;SDS011;3212;51.460;11.868;2023-07-31T19:11:20;4.30;;;3.10;;
6358;SDS011;3212;51.460;11.868;2023-07-31T19:14:42;4.30;;;3.10;;
6358;SDS011;3212;51.460;11.868;2023-07-31T19:18:06;4.53;;;3.07;;
6358;SDS011;3212;51.460;11.868;2023-07-31T19:21:28;6.30;;;3.40;;
6358;SDS011;3212;51.460;11.868;2023-07-31T19:24:51;7.30;;;3.27;;
6358;SDS011;3212;51.460;11.868;2023-07-31T19:28:14;6.63;;;3.40;;
6358;SDS011;3212;51.460;11.868;2023-07-31T19:31:37;5.40;;;2.90;;
6358;SDS011;3212;51.460;11.868;2023-07-31T19:35:00;7.03;;;2.80;;
6358;SDS011;3212;51.460;11.868;2023-07-31T19:38:23;5.00;;;3.00;;
6358;SDS011;3212;51.460;11.868;2023-07-31T19:41:46;8.00;;;3.20;;
6358;SDS011;3212;51.460;11.868;2023-07-31T19:45:09;5.60;;;3.00;;
6358;SDS011;3212;51.460;11.868;2023-07-31T19:48:31;5.50;;;3.33;;
6358;SDS011;3212;51.460;11.868;2023-07-31T19:51:54;6.60;;;3.10;;
6358;SDS011;3212;51.460;11.868;2023-07-31T19:55:16;5.37;;;2.97;;
6358;SDS011;3212;51.460;11.868;2023-07-31T19:58:40;3.80;;;3.10;;
6358;SDS011;3212;51.460;11.868;2023-07-31T20:02:02;7.20;;;3.17;;
6358;SDS011;3212;51.460;11.868;2023-07-31T20:05:25;5.17;;;3.10;;
6358;SDS011;3212;51.460;11.868;2023-07-31T20:08:47;5.13;;;3.83;;
6358;SDS011;3212;51.460;11.868;2023-07-31T20:12:10;8.00;;;3.50;;
6358;SDS011;3212;51.460;11.868;2023-07-31T20:15:32;4.57;;;3.40;;
6358;SDS011;3212;51.460;11.868;2023-07-31T20:18:55;4.93;;;3.10;;
6358;SDS011;3212;51.460;11.868;2023-07-31T20:22:18;8.00;;;3.70;;
6358;SDS011;3212;51.460;11.868;2023-07-31T20:25:41;4.83;;;3.40;;
6358;SDS011;3212;51.460;11.868;2023-07-31T20:29:04;7.00;;;3.07;;
6358;SDS011;3212;51.460;11.868;2023-07-31T20:32:27;5.17;;;3.23;;
6358;SDS011;3212;51.460;11.868;2023-07-31T20:35:50;4.60;;;3.20;;
6358;SDS011;3212;51.460;11.868;2023-07-31T20:39:13;5.43;;;3.33;;
6358;SDS011;3212;51.460;11.868;2023-07-31T20:42:35;4.20;;;2.83;;